sensor_id;sensor_type;location;lat;lon;timestamp;temperature;humidity
70068;DHT22;57425;51.616;6.680;2024-02-14T00:00:08;9.00;89.00
70068;DHT22;57425;51.616;6.680;2024-02-14T00:02:48;9.00;89.00
70068;DHT22;57425;51.616;6.680;2024-02-14T00:05:17;9.10;89.10
70068;DHT22;57425;51.616;6.680;2024-02-14T00:07:43;9.00;89.10
70068;DHT22;57425;51.616;6.680;2024-02-14T00:10:09;9.00;89.00
70068;DHT22;57425;51.616;6.680;2024-02-14T00:12:36;9.00;89.10
70068;DHT22;57425;51.616;6.680;2024-02-14T00:15:03;9.00;89.00
70068;DHT22;57425;51.616;6.680;2024-02-14T00:17:29;9.00;89.00
70068;DHT22;57425;51.616;6.680;2024-02-14T00:19:55;9.00;89.10
70068;DHT22;57425;51.616;6.680;2024-02-14T00:22:21;9.00;89.00
70068;DHT22;57425;51.616;6.680;2024-02-14T00:24:47;9.00;89.10
70068;DHT22;57425;51.616;6.680;2024-02-14T00:27:12;9.00;89.00
70068;DHT22;57425;51.616;6.680;2024-02-14T00:29:40;9.00;89.10
70068;DHT22;57425;51.616;6.680;2024-02-14T00:32:07;9.00;89.10
70068;DHT22;57425;51.616;6.680;2024-02-14T00:34:32;9.10;89.10
70068;DHT22;57425;51.616;6.680;2024-02-14T00:36:58;9.00;89.00
70068;DHT22;57425;51.616;6.680;2024-02-14T00:39:24;9.00;89.00
70068;DHT22;57425;51.616;6.680;2024-02-14T00:41:49;9.10;89.10
70068;DHT22;57425;51.616;6.680;2024-02-14T00:44:18;9.00;89.00
70068;DHT22;57425;51.616;6.680;2024-02-14T00:46:44;9.10;89.10
70068;DHT22;57425;51.616;6.680;2024-02-14T00:49:10;9.00;89.00
70068;DHT22;57425;51.616;6.680;2024-02-14T00:51:36;9.10;89.10
70068;DHT22;57425;51.616;6.680;2024-02-14T00:54:04;9.00;89.00
70068;DHT22;57425;51.616;6.680;2024-02-14T00:56:29;9.10;89.30
70068;DHT22;57425;51.616;6.680;2024-02-14T00:58:56;9.00;89.10
70068;DHT22;57425;51.616;6.680;2024-02-14T01:01:22;9.10;89.10
70068;DHT22;57425;51.616;6.680;2024-02-14T01:03:47;9.20;89.20
70068;DHT22;57425;51.616;6.680;2024-02-14T01:06:14;9.10;89.10
70068;DHT22;57425;51.616;6.680;2024-02-14T01:08:43;9.10;89.10
70068;DHT22;57425;51.616;6.680;2024-02-14T01:11:09;9.10;89.10
70068;DHT22;57425;51.616;6.680;2024-02-14T01:13:35;9.20;89.20
70068;DHT22;57425;51.616;6.680;2024-02-14T01:16:00;9.10;89.10
70068;DHT22;57425;51.616;6.680;2024-02-14T01:18:26;9.10;89.20
70068;DHT22;57425;51.616;6.680;2024-02-14T01:20:52;9.10;89.10
70068;DHT22;57425;51.616;6.680;2024-02-14T01:23:19;9.10;89.10
70068;DHT22;57425;51.616;6.680;2024-02-14T01:25:45;9.10;89.10
70068;DHT22;57425;51.616;6.680;2024-02-14T01:28:11;9.10;89.10
70068;DHT22;57425;51.616;6.680;2024-02-14T01:30:36;9.10;89.10
70068;DHT22;57425;51.616;6.680;2024-02-14T01:33:02;9.10;89.20
70068;DHT22;57425;51.616;6.680;2024-02-14T01:35:32;9.10;89.10
70068;DHT22;57425;51.616;6.680;2024-02-14T01:37:58;9.10;89.20
70068;DHT22;57425;51.616;6.680;2024-02-14T01:40:23;9.10;89.10
70068;DHT22;57425;51.616;6.680;2024-02-14T01:42:49;9.10;89.10
70068;DHT22;57425;51.616;6.680;2024-02-14T01:45:15;9.10;89.10
70068;DHT22;57425;51.616;6.680;2024-02-14T01:47:42;9.10;89.10
70068;DHT22;57425;51.616;6.680;2024-02-14T01:50:08;9.10;89.20
70068;DHT22;57425;51.616;6.680;2024-02-14T01:52:34;9.10;89.20
70068;DHT22;57425;51.616;6.680;2024-02-14T01:55:02;9.10;89.20
70068;DHT22;57425;51.616;6.680;2024-02-14T01:57:31;9.10;89.20
70068;DHT22;57425;51.616;6.680;2024-02-14T01:59:58;9.10;89.20
70068;DHT22;57425;51.616;6.680;2024-02-14T02:02:26;9.10;89.20
70068;DHT22;57425;51.616;6.680;2024-02-14T02:04:52;9.10;89.30
70068;DHT22;57425;51.616;6.680;2024-02-14T02:07:18;9.10;89.20
70068;DHT22;57425;51.616;6.680;2024-02-14T02:09:45;9.10;89.20
70068;DHT22;57425;51.616;6.680;2024-02-14T02:12:11;9.10;89.20
70068;DHT22;57425;51.616;6.680;2024-02-14T02:14:37;9.10;89.20
70068;DHT22;57425;51.616;6.680;2024-02-14T02:17:02;9.10;89.20
70068;DHT22;57425;51.616;6.680;2024-02-14T02:19:33;9.10;89.20
70068;DHT22;57425;51.616;6.680;2024-02-14T02:21:59;9.10;89.20
70068;DHT22;57425;51.616;6.680;2024-02-14T02:24:25;9.10;89.20
70068;DHT22;57425;51.616;6.680;2024-02-14T02:26:50;9.10;89.20
70068;DHT22;57425;51.616;6.680;2024-02-14T02:29:16;9.10;89.20
70068;DHT22;57425;51.616;6.680;2024-02-14T02:31:42;9.20;89.30
70068;DHT22;57425;51.616;6.680;2024-02-14T02:34:07;9.10;89.20
70068;DHT22;57425;51.616;6.680;2024-02-14T02:36:36;9.10;89.20
70068;DHT22;57425;51.616;6.680;2024-02-14T02:39:03;9.10;89.20
70068;DHT22;57425;51.616;6.680;2024-02-14T02:41:30;9.10;89.20
70068;DHT22;57425;51.616;6.680;2024-02-14T02:43:57;9.10;89.20
70068;DHT22;57425;51.616;6.680;2024-02-14T02:46:25;9.10;89.20
70068;DHT22;57425;51.616;6.680;2024-02-14T02:48:51;9.10;89.20
70068;DHT22;57425;51.616;6.680;2024-02-14T02:51:20;9.20;89.20
70068;DHT22;57425;51.616;6.680;2024-02-14T02:53:46;9.20;89.20
70068;DHT22;57425;51.616;6.680;2024-02-14T02:56:12;9.20;89.30
70068;DHT22;57425;51.616;6.680;2024-02-14T02:58:38;9.20;89.20
70068;DHT22;57425;51.616;6.680;2024-02-14T03:01:08;9.20;89.30
70068;DHT22;57425;51.616;6.680;2024-02-14T03:03:34;9.20;89.30
70068;DHT22;57425;51.616;6.680;2024-02-14T03:05:59;9.20;89.30
70068;DHT22;57425;51.616;6.680;2024-02-14T03:08:25;9.20;89.30
70068;DHT22;57425;51.616;6.680;2024-02-14T03:10:51;9.20;89.30
70068;DHT22;57425;51.616;6.680;2024-02-14T03:13:17;9.20;89.30
70068;DHT22;57425;51.616;6.680;2024-02-14T03:15:44;9.20;89.20
70068;DHT22;57425;51.616;6.680;2024-02-14T03:18:12;9.20;89.20
70068;DHT22;57425;51.616;6.680;2024-02-14T03:20:37;9.20;89.20
70068;DHT22;57425;51.616;6.680;2024-02-14T03:23:03;9.20;89.20
70068;DHT22;57425;51.616;6.680;2024-02-14T03:25:31;9.20;89.20
70068;DHT22;57425;51.616;6.680;2024-02-14T03:27:57;9.20;89.20
70068;DHT22;57425;51.616;6.680;2024-02-14T03:30:24;9.20;89.20
70068;DHT22;57425;51.616;6.680;2024-02-14T03:32:50;9.20;89.20
70068;DHT22;57425;51.616;6.680;2024-02-14T03:35:16;9.30;89.20
70068;DHT22;57425;51.616;6.680;2024-02-14T03:37:45;9.20;89.20
70068;DHT22;57425;51.616;6.680;2024-02-14T03:40:13;9.20;89.20
70068;DHT22;57425;51.616;6.680;2024-02-14T03:42:38;9.20;89.20
70068;DHT22;57425;51.616;6.680;2024-02-14T03:45:07;9.20;89.20
70068;DHT22;57425;51.616;6.680;2024-02-14T03:47:33;9.20;89.20
70068;DHT22;57425;51.616;6.680;2024-02-14T03:50:00;9.30;89.20
70068;DHT22;57425;51.616;6.680;2024-02-14T03:52:26;9.20;89.20
70068;DHT22;57425;51.616;6.680;2024-02-14T03:54:52;9.30;89.20
70068;DHT22;57425;51.616;6.680;2024-02-14T03:57:18;9.30;89.20
70068;DHT22;57425;51.616;6.680;2024-02-14T03:59:44;9.30;89.20
70068;DHT22;57425;51.616;6.680;2024-02-14T04:02:10;9.30;89.30
70068;DHT22;57425;51.616;6.680;2024-02-14T04:04:43;9.20;89.20
70068;DHT22;57425;51.616;6.680;2024-02-14T04:07:09;9.30;89.20
70068;DHT22;57425;51.616;6.680;2024-02-14T04:09:35;9.30;89.30
70068;DHT22;57425;51.616;6.680;2024-02-14T04:12:01;9.30;89.20
70068;DHT22;57425;51.616;6.680;2024-02-14T04:14:27;9.30;89.20
70068;DHT22;57425;51.616;6.680;2024-02-14T04:16:52;9.30;89.20
70068;DHT22;57425;51.616;6.680;2024-02-14T04:19:18;9.30;89.20
70068;DHT22;57425;51.616;6.680;2024-02-14T04:21:44;9.30;89.20
70068;DHT22;57425;51.616;6.680;2024-02-14T04:24:10;9.30;89.20
70068;DHT22;57425;51.616;6.680;2024-02-14T04:26:35;9.30;89.20
70068;DHT22;57425;51.616;6.680;2024-02-14T04:29:01;9.30;89.20
70068;DHT22;57425;51.616;6.680;2024-02-14T04:31:28;9.30;89.20
70068;DHT22;57425;51.616;6.680;2024-02-14T04:33:55;9.30;89.20
70068;DHT22;57425;51.616;6.680;2024-02-14T04:36:21;9.30;89.20
70068;DHT22;57425;51.616;6.680;2024-02-14T04:38:49;9.30;89.20
70068;DHT22;57425;51.616;6.680;2024-02-14T04:41:15;9.30;89.20
70068;DHT22;57425;51.616;6.680;2024-02-14T04:43:41;9.30;89.20
70068;DHT22;57425;51.616;6.680;2024-02-14T04:46:07;9.30;89.20
70068;DHT22;57425;51.616;6.680;2024-02-14T04:48:35;9.40;89.20
70068;DHT22;57425;51.616;6.680;2024-02-14T04:51:01;9.30;89.20
70068;DHT22;57425;51.616;6.680;2024-02-14T04:53:27;9.40;89.20
70068;DHT22;57425;51.616;6.680;2024-02-14T04:55:53;9.40;89.20
70068;DHT22;57425;51.616;6.680;2024-02-14T04:58:19;9.30;89.10
70068;DHT22;57425;51.616;6.680;2024-02-14T05:00:45;9.40;89.20
70068;DHT22;57425;51.616;6.680;2024-02-14T05:03:11;9.40;89.20
70068;DHT22;57425;51.616;6.680;2024-02-14T05:05:37;9.40;89.20
70068;DHT22;57425;51.616;6.680;2024-02-14T05:08:03;9.40;89.20
70068;DHT22;57425;51.616;6.680;2024-02-14T05:10:31;9.40;89.20
70068;DHT22;57425;51.616;6.680;2024-02-14T05:12:57;9.40;89.10
70068;DHT22;57425;51.616;6.680;2024-02-14T05:15:23;9.40;89.20
70068;DHT22;57425;51.616;6.680;2024-02-14T05:17:49;9.40;89.20
70068;DHT22;57425;51.616;6.680;2024-02-14T05:20:15;9.40;89.20
70068;DHT22;57425;51.616;6.680;2024-02-14T05:22:41;9.40;89.10
70068;DHT22;57425;51.616;6.680;2024-02-14T05:25:07;9.40;89.10
70068;DHT22;57425;51.616;6.680;2024-02-14T05:27:34;9.40;89.10
70068;DHT22;57425;51.616;6.680;2024-02-14T05:30:05;9.40;89.20
70068;DHT22;57425;51.616;6.680;2024-02-14T05:32:34;9.40;89.10
70068;DHT22;57425;51.616;6.680;2024-02-14T05:34:59;9.40;89.10
70068;DHT22;57425;51.616;6.680;2024-02-14T05:37:25;9.40;89.10
70068;DHT22;57425;51.616;6.680;2024-02-14T05:39:54;9.40;89.10
70068;DHT22;57425;51.616;6.680;2024-02-14T05:42:20;9.50;89.20
70068;DHT22;57425;51.616;6.680;2024-02-14T05:44:46;9.40;89.10
70068;DHT22;57425;51.616;6.680;2024-02-14T05:47:12;9.50;89.20
70068;DHT22;57425;51.616;6.680;2024-02-14T05:49:41;9.40;89.10
70068;DHT22;57425;51.616;6.680;2024-02-14T05:52:08;9.50;89.10
70068;DHT22;57425;51.616;6.680;2024-02-14T05:54:34;9.40;89.10
70068;DHT22;57425;51.616;6.680;2024-02-14T05:57:00;9.50;89.10
70068;DHT22;57425;51.616;6.680;2024-02-14T05:59:28;9.50;89.20
70068;DHT22;57425;51.616;6.680;2024-02-14T06:01:54;9.50;89.20
70068;DHT22;57425;51.616;6.680;2024-02-14T06:04:20;9.50;89.20
70068;DHT22;57425;51.616;6.680;2024-02-14T06:06:45;9.60;89.20
70068;DHT22;57425;51.616;6.680;2024-02-14T06:09:11;9.50;89.20
70068;DHT22;57425;51.616;6.680;2024-02-14T06:11:37;9.50;89.20
70068;DHT22;57425;51.616;6.680;2024-02-14T06:14:07;9.50;89.20
70068;DHT22;57425;51.616;6.680;2024-02-14T06:16:33;9.50;89.20
70068;DHT22;57425;51.616;6.680;2024-02-14T06:18:58;9.50;89.20
70068;DHT22;57425;51.616;6.680;2024-02-14T06:21:24;9.50;89.10
70068;DHT22;57425;51.616;6.680;2024-02-14T06:23:51;9.50;89.20
70068;DHT22;57425;51.616;6.680;2024-02-14T06:26:17;9.50;89.20
70068;DHT22;57425;51.616;6.680;2024-02-14T06:28:44;9.50;89.20
70068;DHT22;57425;51.616;6.680;2024-02-14T06:31:10;9.60;89.20
70068;DHT22;57425;51.616;6.680;2024-02-14T06:33:36;9.70;89.20
70068;DHT22;57425;51.616;6.680;2024-02-14T06:36:02;9.70;89.30
70068;DHT22;57425;51.616;6.680;2024-02-14T06:38:28;9.50;89.10
70068;DHT22;57425;51.616;6.680;2024-02-14T06:40:53;9.50;89.20
70068;DHT22;57425;51.616;6.680;2024-02-14T06:43:19;9.50;89.10
70068;DHT22;57425;51.616;6.680;2024-02-14T06:45:45;9.60;89.20
70068;DHT22;57425;51.616;6.680;2024-02-14T06:48:11;9.50;89.10
70068;DHT22;57425;51.616;6.680;2024-02-14T06:50:36;9.50;89.60
70068;DHT22;57425;51.616;6.680;2024-02-14T06:53:02;9.60;89.20
70068;DHT22;57425;51.616;6.680;2024-02-14T06:55:28;9.50;89.10
70068;DHT22;57425;51.616;6.680;2024-02-14T06:57:57;9.50;89.10
70068;DHT22;57425;51.616;6.680;2024-02-14T07:00:23;9.50;89.20
70068;DHT22;57425;51.616;6.680;2024-02-14T07:02:49;9.60;89.20
70068;DHT22;57425;51.616;6.680;2024-02-14T07:05:15;9.60;89.20
70068;DHT22;57425;51.616;6.680;2024-02-14T07:07:41;9.50;89.10
70068;DHT22;57425;51.616;6.680;2024-02-14T07:10:07;9.70;89.20
70068;DHT22;57425;51.616;6.680;2024-02-14T07:12:33;9.50;89.20
70068;DHT22;57425;51.616;6.680;2024-02-14T07:14:59;9.60;89.20
70068;DHT22;57425;51.616;6.680;2024-02-14T07:17:24;9.60;89.20
70068;DHT22;57425;51.616;6.680;2024-02-14T07:19:50;9.60;89.20
70068;DHT22;57425;51.616;6.680;2024-02-14T07:22:16;9.60;89.20
70068;DHT22;57425;51.616;6.680;2024-02-14T07:24:44;9.60;89.20
70068;DHT22;57425;51.616;6.680;2024-02-14T07:27:13;9.60;89.20
70068;DHT22;57425;51.616;6.680;2024-02-14T07:29:39;9.60;89.20
70068;DHT22;57425;51.616;6.680;2024-02-14T07:32:05;9.60;89.20
70068;DHT22;57425;51.616;6.680;2024-02-14T07:34:32;9.60;89.20
70068;DHT22;57425;51.616;6.680;2024-02-14T07:36:57;9.60;89.20
70068;DHT22;57425;51.616;6.680;2024-02-14T07:39:23;9.60;89.20
70068;DHT22;57425;51.616;6.680;2024-02-14T07:41:49;9.60;89.20
70068;DHT22;57425;51.616;6.680;2024-02-14T07:44:14;9.80;89.30
70068;DHT22;57425;51.616;6.680;2024-02-14T07:46:40;9.60;89.20
70068;DHT22;57425;51.616;6.680;2024-02-14T07:49:06;9.60;89.20
70068;DHT22;57425;51.616;6.680;2024-02-14T07:51:31;9.80;89.30
70068;DHT22;57425;51.616;6.680;2024-02-14T07:54:02;9.60;89.20
70068;DHT22;57425;51.616;6.680;2024-02-14T07:56:29;9.60;89.20
70068;DHT22;57425;51.616;6.680;2024-02-14T07:58:55;9.60;89.20
70068;DHT22;57425;51.616;6.680;2024-02-14T08:01:21;9.60;89.20
70068;DHT22;57425;51.616;6.680;2024-02-14T08:03:46;9.60;89.20
70068;DHT22;57425;51.616;6.680;2024-02-14T08:06:12;9.60;89.20
70068;DHT22;57425;51.616;6.680;2024-02-14T08:08:38;9.60;89.20
70068;DHT22;57425;51.616;6.680;2024-02-14T08:11:04;9.60;89.20
70068;DHT22;57425;51.616;6.680;2024-02-14T08:13:30;9.70;89.90
70068;DHT22;57425;51.616;6.680;2024-02-14T08:15:55;9.60;89.20
70068;DHT22;57425;51.616;6.680;2024-02-14T08:18:21;9.70;89.30
70068;DHT22;57425;51.616;6.680;2024-02-14T08:20:48;9.60;89.20
70068;DHT22;57425;51.616;6.680;2024-02-14T08:23:13;9.70;89.30
70068;DHT22;57425;51.616;6.680;2024-02-14T08:25:39;9.70;89.30
70068;DHT22;57425;51.616;6.680;2024-02-14T08:28:06;9.70;89.30
70068;DHT22;57425;51.616;6.680;2024-02-14T08:30:33;9.70;89.30
70068;DHT22;57425;51.616;6.680;2024-02-14T08:33:00;9.70;89.30
70068;DHT22;57425;51.616;6.680;2024-02-14T08:35:25;9.70;89.30
70068;DHT22;57425;51.616;6.680;2024-02-14T08:37:51;9.70;89.30
70068;DHT22;57425;51.616;6.680;2024-02-14T08:40:16;9.70;89.30
70068;DHT22;57425;51.616;6.680;2024-02-14T08:42:42;9.70;89.30
70068;DHT22;57425;51.616;6.680;2024-02-14T08:45:08;9.70;89.30
70068;DHT22;57425;51.616;6.680;2024-02-14T08:47:34;9.70;89.30
70068;DHT22;57425;51.616;6.680;2024-02-14T08:50:00;9.70;89.80
70068;DHT22;57425;51.616;6.680;2024-02-14T08:52:25;9.70;89.30
70068;DHT22;57425;51.616;6.680;2024-02-14T08:54:52;9.80;89.30
70068;DHT22;57425;51.616;6.680;2024-02-14T08:57:17;9.70;89.30
70068;DHT22;57425;51.616;6.680;2024-02-14T08:59:45;9.70;89.30
70068;DHT22;57425;51.616;6.680;2024-02-14T09:02:12;9.70;89.20
70068;DHT22;57425;51.616;6.680;2024-02-14T09:04:39;9.70;89.30
70068;DHT22;57425;51.616;6.680;2024-02-14T09:07:07;9.70;89.20
70068;DHT22;57425;51.616;6.680;2024-02-14T09:09:33;9.70;89.20
70068;DHT22;57425;51.616;6.680;2024-02-14T09:11:59;9.80;89.30
70068;DHT22;57425;51.616;6.680;2024-02-14T09:14:28;9.80;89.30
70068;DHT22;57425;51.616;6.680;2024-02-14T09:16:54;9.80;89.30
70068;DHT22;57425;51.616;6.680;2024-02-14T09:19:20;9.70;89.20
70068;DHT22;57425;51.616;6.680;2024-02-14T09:21:46;9.80;89.30
70068;DHT22;57425;51.616;6.680;2024-02-14T09:24:13;9.90;89.30
70068;DHT22;57425;51.616;6.680;2024-02-14T09:26:38;9.90;89.30
70068;DHT22;57425;51.616;6.680;2024-02-14T09:29:04;9.90;89.90
70068;DHT22;57425;51.616;6.680;2024-02-14T09:31:30;9.80;89.30
70068;DHT22;57425;51.616;6.680;2024-02-14T09:33:56;9.80;89.30
70068;DHT22;57425;51.616;6.680;2024-02-14T09:36:23;10.00;89.40
70068;DHT22;57425;51.616;6.680;2024-02-14T09:38:51;9.80;89.30
70068;DHT22;57425;51.616;6.680;2024-02-14T09:41:27;9.80;89.30
70068;DHT22;57425;51.616;6.680;2024-02-14T09:43:55;9.80;89.30
70068;DHT22;57425;51.616;6.680;2024-02-14T09:46:24;9.90;89.30
70068;DHT22;57425;51.616;6.680;2024-02-14T09:48:50;9.90;89.30
70068;DHT22;57425;51.616;6.680;2024-02-14T09:51:17;9.80;89.30
70068;DHT22;57425;51.616;6.680;2024-02-14T09:53:43;9.80;89.30
70068;DHT22;57425;51.616;6.680;2024-02-14T09:56:10;9.80;89.30
70068;DHT22;57425;51.616;6.680;2024-02-14T09:58:37;9.80;89.30
70068;DHT22;57425;51.616;6.680;2024-02-14T10:01:03;9.80;89.30
70068;DHT22;57425;51.616;6.680;2024-02-14T10:03:30;9.80;89.30
70068;DHT22;57425;51.616;6.680;2024-02-14T10:05:55;9.90;89.30
70068;DHT22;57425;51.616;6.680;2024-02-14T10:08:22;9.80;89.30
70068;DHT22;57425;51.616;6.680;2024-02-14T10:10:49;9.90;89.30
70068;DHT22;57425;51.616;6.680;2024-02-14T10:13:15;10.00;89.40
70068;DHT22;57425;51.616;6.680;2024-02-14T10:15:41;9.90;89.30
70068;DHT22;57425;51.616;6.680;2024-02-14T10:18:07;9.90;89.30
70068;DHT22;57425;51.616;6.680;2024-02-14T10:20:35;9.90;89.30
70068;DHT22;57425;51.616;6.680;2024-02-14T10:23:07;9.90;89.30
70068;DHT22;57425;51.616;6.680;2024-02-14T10:25:36;9.90;89.80
70068;DHT22;57425;51.616;6.680;2024-02-14T10:28:05;9.90;89.30
70068;DHT22;57425;51.616;6.680;2024-02-14T10:30:38;9.90;89.30
70068;DHT22;57425;51.616;6.680;2024-02-14T10:33:05;9.90;89.30
70068;DHT22;57425;51.616;6.680;2024-02-14T10:35:33;9.90;89.30
70068;DHT22;57425;51.616;6.680;2024-02-14T10:38:02;10.00;89.30
70068;DHT22;57425;51.616;6.680;2024-02-14T10:40:28;10.00;89.30
70068;DHT22;57425;51.616;6.680;2024-02-14T10:42:55;10.00;89.30
70068;DHT22;57425;51.616;6.680;2024-02-14T10:45:20;9.90;89.30
70068;DHT22;57425;51.616;6.680;2024-02-14T10:47:47;9.90;89.30
70068;DHT22;57425;51.616;6.680;2024-02-14T10:50:15;10.20;89.40
70068;DHT22;57425;51.616;6.680;2024-02-14T10:52:41;10.00;89.30
70068;DHT22;57425;51.616;6.680;2024-02-14T10:55:09;10.00;89.30
70068;DHT22;57425;51.616;6.680;2024-02-14T10:57:38;10.00;89.30
70068;DHT22;57425;51.616;6.680;2024-02-14T11:00:09;10.00;89.30
70068;DHT22;57425;51.616;6.680;2024-02-14T11:02:35;10.00;89.30
70068;DHT22;57425;51.616;6.680;2024-02-14T11:05:02;10.00;89.30
70068;DHT22;57425;51.616;6.680;2024-02-14T11:07:28;10.00;89.30
70068;DHT22;57425;51.616;6.680;2024-02-14T11:10:07;10.00;89.30
70068;DHT22;57425;51.616;6.680;2024-02-14T11:12:34;10.10;89.30
70068;DHT22;57425;51.616;6.680;2024-02-14T11:15:23;10.10;89.40
70068;DHT22;57425;51.616;6.680;2024-02-14T11:17:48;10.00;89.30
70068;DHT22;57425;51.616;6.680;2024-02-14T11:20:16;10.10;89.30
70068;DHT22;57425;51.616;6.680;2024-02-14T11:23:05;10.10;89.30
70068;DHT22;57425;51.616;6.680;2024-02-14T11:25:38;10.10;89.80
70068;DHT22;57425;51.616;6.680;2024-02-14T11:28:14;10.30;89.40
70068;DHT22;57425;51.616;6.680;2024-02-14T11:30:41;10.10;89.80
70068;DHT22;57425;51.616;6.680;2024-02-14T11:35:45;10.10;89.20
70068;DHT22;57425;51.616;6.680;2024-02-14T11:38:11;10.10;89.30
70068;DHT22;57425;51.616;6.680;2024-02-14T11:40:37;10.10;89.30
70068;DHT22;57425;51.616;6.680;2024-02-14T11:43:09;10.10;89.30
70068;DHT22;57425;51.616;6.680;2024-02-14T11:45:35;10.10;89.30
70068;DHT22;57425;51.616;6.680;2024-02-14T11:48:04;10.30;89.40
70068;DHT22;57425;51.616;6.680;2024-02-14T11:50:30;10.20;89.30
70068;DHT22;57425;51.616;6.680;2024-02-14T11:52:58;10.20;89.30
70068;DHT22;57425;51.616;6.680;2024-02-14T11:55:28;10.20;89.30
70068;DHT22;57425;51.616;6.680;2024-02-14T11:57:55;10.20;89.30
70068;DHT22;57425;51.616;6.680;2024-02-14T12:00:20;10.20;89.30
70068;DHT22;57425;51.616;6.680;2024-02-14T12:02:46;10.20;89.30
70068;DHT22;57425;51.616;6.680;2024-02-14T12:05:12;10.20;89.20
70068;DHT22;57425;51.616;6.680;2024-02-14T12:07:39;10.30;89.30
70068;DHT22;57425;51.616;6.680;2024-02-14T12:10:05;10.20;89.20
70068;DHT22;57425;51.616;6.680;2024-02-14T12:12:31;10.30;89.30
70068;DHT22;57425;51.616;6.680;2024-02-14T12:14:57;10.30;89.30
70068;DHT22;57425;51.616;6.680;2024-02-14T12:17:24;10.30;89.30
70068;DHT22;57425;51.616;6.680;2024-02-14T12:19:50;10.40;89.30
70068;DHT22;57425;51.616;6.680;2024-02-14T12:22:17;10.30;89.30
70068;DHT22;57425;51.616;6.680;2024-02-14T12:24:46;10.30;89.30
70068;DHT22;57425;51.616;6.680;2024-02-14T12:27:17;10.30;89.80
70068;DHT22;57425;51.616;6.680;2024-02-14T12:29:46;10.30;89.30
70068;DHT22;57425;51.616;6.680;2024-02-14T12:32:11;10.40;89.30
70068;DHT22;57425;51.616;6.680;2024-02-14T12:34:43;10.30;89.20
70068;DHT22;57425;51.616;6.680;2024-02-14T12:37:09;10.40;89.30
70068;DHT22;57425;51.616;6.680;2024-02-14T12:39:36;10.40;89.80
70068;DHT22;57425;51.616;6.680;2024-02-14T12:42:03;10.40;89.30
70068;DHT22;57425;51.616;6.680;2024-02-14T12:44:30;10.40;89.30
70068;DHT22;57425;51.616;6.680;2024-02-14T12:46:57;10.40;89.30
70068;DHT22;57425;51.616;6.680;2024-02-14T12:49:23;10.40;89.30
70068;DHT22;57425;51.616;6.680;2024-02-14T12:51:51;10.40;89.30
70068;DHT22;57425;51.616;6.680;2024-02-14T12:54:17;10.50;89.30
70068;DHT22;57425;51.616;6.680;2024-02-14T12:56:43;10.40;89.20
70068;DHT22;57425;51.616;6.680;2024-02-14T12:59:16;10.50;89.30
70068;DHT22;57425;51.616;6.680;2024-02-14T13:01:43;10.50;89.30
70068;DHT22;57425;51.616;6.680;2024-02-14T13:04:09;10.50;89.80
70068;DHT22;57425;51.616;6.680;2024-02-14T13:06:35;10.50;89.30
70068;DHT22;57425;51.616;6.680;2024-02-14T13:09:03;10.50;89.30
70068;DHT22;57425;51.616;6.680;2024-02-14T13:11:31;10.50;89.30
70068;DHT22;57425;51.616;6.680;2024-02-14T13:13:57;10.50;89.20
70068;DHT22;57425;51.616;6.680;2024-02-14T13:16:23;10.50;89.20
70068;DHT22;57425;51.616;6.680;2024-02-14T13:18:49;10.60;89.30
70068;DHT22;57425;51.616;6.680;2024-02-14T13:21:15;10.50;89.20
70068;DHT22;57425;51.616;6.680;2024-02-14T13:23:42;10.50;89.20
70068;DHT22;57425;51.616;6.680;2024-02-14T13:26:08;10.50;89.30
70068;DHT22;57425;51.616;6.680;2024-02-14T13:28:34;10.50;89.20
70068;DHT22;57425;51.616;6.680;2024-02-14T13:31:00;10.70;89.30
70068;DHT22;57425;51.616;6.680;2024-02-14T13:33:26;10.50;89.20
70068;DHT22;57425;51.616;6.680;2024-02-14T13:35:52;10.60;89.30
70068;DHT22;57425;51.616;6.680;2024-02-14T13:38:17;10.60;89.30
70068;DHT22;57425;51.616;6.680;2024-02-14T13:40:43;10.60;89.30
70068;DHT22;57425;51.616;6.680;2024-02-14T13:43:09;10.60;89.80
70068;DHT22;57425;51.616;6.680;2024-02-14T13:45:43;10.60;89.20
70068;DHT22;57425;51.616;6.680;2024-02-14T13:48:09;10.60;89.20
70068;DHT22;57425;51.616;6.680;2024-02-14T13:50:39;10.60;89.20
70068;DHT22;57425;51.616;6.680;2024-02-14T13:53:06;10.60;89.20
70068;DHT22;57425;51.616;6.680;2024-02-14T13:55:31;10.60;89.20
70068;DHT22;57425;51.616;6.680;2024-02-14T13:57:57;10.60;89.20
70068;DHT22;57425;51.616;6.680;2024-02-14T14:00:23;10.60;89.20
70068;DHT22;57425;51.616;6.680;2024-02-14T14:02:49;10.60;89.20
70068;DHT22;57425;51.616;6.680;2024-02-14T14:05:14;10.60;89.70
70068;DHT22;57425;51.616;6.680;2024-02-14T14:07:41;10.60;89.20
70068;DHT22;57425;51.616;6.680;2024-02-14T14:10:09;10.60;89.20
70068;DHT22;57425;51.616;6.680;2024-02-14T14:12:35;10.70;89.20
70068;DHT22;57425;51.616;6.680;2024-02-14T14:15:01;10.70;89.30
70068;DHT22;57425;51.616;6.680;2024-02-14T14:17:27;10.60;89.20
70068;DHT22;57425;51.616;6.680;2024-02-14T14:19:53;10.70;89.20
70068;DHT22;57425;51.616;6.680;2024-02-14T14:22:20;10.70;89.20
70068;DHT22;57425;51.616;6.680;2024-02-14T14:24:47;10.70;89.20
70068;DHT22;57425;51.616;6.680;2024-02-14T14:27:12;10.90;89.30
70068;DHT22;57425;51.616;6.680;2024-02-14T14:29:43;10.70;89.20
70068;DHT22;57425;51.616;6.680;2024-02-14T14:32:09;10.70;89.20
70068;DHT22;57425;51.616;6.680;2024-02-14T14:34:35;10.70;89.20
70068;DHT22;57425;51.616;6.680;2024-02-14T14:37:01;10.80;89.30
70068;DHT22;57425;51.616;6.680;2024-02-14T14:39:27;10.70;89.20
70068;DHT22;57425;51.616;6.680;2024-02-14T14:41:53;10.70;89.20
70068;DHT22;57425;51.616;6.680;2024-02-14T14:44:22;10.80;89.80
70068;DHT22;57425;51.616;6.680;2024-02-14T14:46:48;10.80;89.30
70068;DHT22;57425;51.616;6.680;2024-02-14T14:49:15;10.70;89.20
70068;DHT22;57425;51.616;6.680;2024-02-14T14:51:42;10.70;89.20
70068;DHT22;57425;51.616;6.680;2024-02-14T14:54:08;10.70;89.20
70068;DHT22;57425;51.616;6.680;2024-02-14T14:56:34;10.70;89.20
70068;DHT22;57425;51.616;6.680;2024-02-14T14:58:59;10.80;89.30
70068;DHT22;57425;51.616;6.680;2024-02-14T15:01:32;10.80;89.20
70068;DHT22;57425;51.616;6.680;2024-02-14T15:03:59;10.80;89.20
70068;DHT22;57425;51.616;6.680;2024-02-14T15:06:25;10.80;89.20
70068;DHT22;57425;51.616;6.680;2024-02-14T15:08:51;10.80;89.20
70068;DHT22;57425;51.616;6.680;2024-02-14T15:11:17;10.80;89.20
70068;DHT22;57425;51.616;6.680;2024-02-14T15:13:44;10.80;89.30
70068;DHT22;57425;51.616;6.680;2024-02-14T15:16:11;10.80;89.20
70068;DHT22;57425;51.616;6.680;2024-02-14T15:18:39;11.00;89.30
70068;DHT22;57425;51.616;6.680;2024-02-14T15:21:06;10.80;89.30
70068;DHT22;57425;51.616;6.680;2024-02-14T15:23:32;10.80;89.20
70068;DHT22;57425;51.616;6.680;2024-02-14T15:25:58;10.80;89.20
70068;DHT22;57425;51.616;6.680;2024-02-14T15:28:32;10.80;89.20
70068;DHT22;57425;51.616;6.680;2024-02-14T15:30:59;11.10;89.40
70068;DHT22;57425;51.616;6.680;2024-02-14T15:33:44;10.80;89.20
70068;DHT22;57425;51.616;6.680;2024-02-14T15:36:10;10.90;89.30
70068;DHT22;57425;51.616;6.680;2024-02-14T15:38:41;10.80;89.80